Airport View

Enter AWOS ICAO identifier for current METAR.

ex. KFNL

KLNR 202210Z AUTO 12009KT 5SM -RA OVC028 07/03 A3006 RMK AO2 P0000 T00670033

20 Oct 2020 22:38

Frequency: 119.425

Phone: 608-583-2576

Other Area AWOS: KMRJ - KC35 - KOVS - KDLL

TAF AMD KMSN 202224Z 2022/2118 12007KT 3SM -RA BR OVC019 FM210300 VRB04KT 4SM -RA BR OVC007 FM210600 25006KT 6SM BR OVC008 FM211500 28009KT P6SM BKN035